首页
METAR-TAF:

METAR-TAF

机场 :

Borden, 安大略省, 加拿大

纬度: 44-15N, 经度: 079-55W, 海拔: 223米

当前天气观测

该预报发布于35分钟前的15:00 UTC
风速4节,风向,在北转东北南转南东之间变化
温度 22°C
湿度 60%
气压 1014 hPa
能見度: 14.5公里
少量云层高于5200英尺

METAR: CYBN 181500Z AUTO 09004KT 030V150 9SM FEW052 22/14 A2995 RMK SLP141

时间: 11:35 (15:35 UTC)

预报

该预报发布于4小时和5分钟前的11:30 UTC
预报有效从18日的 12点(UTC)到 18日的 24点(UTC)
风速3节,风向多变
能見度: 10公里
多云层高于6000英尺
短暂存在
从 18日的 17点(UTC)到 18日的 24点(UTC)
能見度: 10公里
小阵雨
成为
从 18日的 17点(UTC)到 18日的 19点(UTC)
风速8节,风向南转西南

TAF: CYBN 181130Z 1812/1824 VRB03KT P6SM BKN060 TEMPO 1817/1824 P6SM -SHRA BECMG 1817/1819 20008KT RMK FCST BASED ON AUTO OBS. NXT FCST BY 181800Z

超过4000个机场的气象观测和天气预报(METAR&TAF报告)。

可查询的气象台以黄色和红色小点在地图上表示。

将鼠标移到小点上方,可查看气象台名称。

然后点击查看天气观测和预报。

如需切换地图:点击带黑十字的绿色按钮放大地图;点击带横线的绿色按钮缩小地图;或者点击绿色箭头查看邻近地区的地图。


METAR-TAF: